Time,TemperatureF,DewpointF,PressureIn,WindDirection,WindDirectionDegrees,WindSpeedMPH,WindSpeedGustMPH,Humidity,HourlyPrecipIn,Conditions,Clouds,dailyrainin,SoftwareType,DateUTC
2013-04-09 00:02:00,55.2,28.8,29.22,NNW,336,4.0,6.9,36,0.00,,,0.00,meteobridge,2013-04-09 06:02:00,
2013-04-09 00:07:00,55.2,28.8,29.22,North,355,8.9,10.1,36,0.00,,,0.00,meteobridge,2013-04-09 06:07:00,
2013-04-09 00:12:00,55.0,28.6,29.22,WNW,282,2.9,12.1,36,0.00,,,0.00,meteobridge,2013-04-09 06:12:00,
2013-04-09 00:17:00,55.0,28.6,29.22,North,355,4.0,8.9,36,0.00,,,0.00,meteobridge,2013-04-09 06:17:00,
2013-04-09 00:22:00,54.9,29.1,29.22,NW,313,4.0,6.9,37,0.00,,,0.00,meteobridge,2013-04-09 06:22:00,
2013-04-09 00:27:00,54.7,28.9,29.21,North,0,6.9,11.0,37,0.00,,,0.00,meteobridge,2013-04-09 06:27:00,
2013-04-09 00:32:00,54.5,28.8,29.21,North,351,2.9,12.1,37,0.00,,,0.00,meteobridge,2013-04-09 06:32:00,
2013-04-09 00:37:00,54.3,29.3,29.22,North,355,0.0,4.0,38,0.00,,,0.00,meteobridge,2013-04-09 06:37:00,
2013-04-09 00:42:00,54.3,29.3,29.22,NW,317,2.9,6.0,38,0.00,,,0.00,meteobridge,2013-04-09 06:42:00,
2013-04-09 00:47:00,54.1,29.1,29.22,NNE,12,4.0,10.1,38,0.00,,,0.00,meteobridge,2013-04-09 06:47:00,
2013-04-09 00:52:00,54.0,28.9,29.22,NNE,17,4.9,8.1,38,0.00,,,0.00,meteobridge,2013-04-09 06:52:00,
2013-04-09 00:57:00,54.0,28.9,29.21,NNW,342,6.0,8.1,38,0.00,,,0.00,meteobridge,2013-04-09 06:57:00,
2013-04-09 01:02:00,53.8,28.8,29.21,NW,323,0.9,4.9,38,0.00,,,0.00,meteobridge,2013-04-09 07:02:00,
2013-04-09 01:07:00,53.4,29.1,29.21,WNW,302,2.9,4.9,39,0.00,,,0.00,meteobridge,2013-04-09 07:07:00,
2013-04-09 01:12:00,53.2,28.9,29.21,North,0,4.9,6.0,39,0.00,,,0.00,meteobridge,2013-04-09 07:12:00,
2013-04-09 01:17:00,53.1,28.8,29.22,NW,307,2.9,6.9,39,0.00,,,0.00,meteobridge,2013-04-09 07:17:00,
2013-04-09 01:22:00,52.9,29.3,29.21,NNW,344,6.0,8.9,40,0.00,,,0.00,meteobridge,2013-04-09 07:22:00,
2013-04-09 01:27:00,52.5,28.9,29.21,NW,325,2.9,8.9,40,0.00,,,0.00,meteobridge,2013-04-09 07:27:00,
2013-04-09 01:32:00,52.3,28.8,29.21,NNW,340,6.0,8.9,40,0.00,,,0.00,meteobridge,2013-04-09 07:32:00,
2013-04-09 01:37:00,52.3,29.3,29.21,NW,304,0.9,6.9,41,0.00,,,0.00,meteobridge,2013-04-09 07:37:00,
2013-04-09 01:43:00,52.2,29.1,29.21,NNW,332,0.9,2.9,41,0.00,,,0.00,meteobridge,2013-04-09 07:43:00,
2013-04-09 01:48:00,52.0,28.9,29.20,NNW,333,2.9,4.9,41,0.00,,,0.00,meteobridge,2013-04-09 07:48:00,
2013-04-09 01:53:00,51.8,28.8,29.20,NNW,339,2.9,6.9,41,0.00,,,0.00,meteobridge,2013-04-09 07:53:00,
2013-04-09 01:58:00,51.6,29.3,29.19,NNW,345,2.0,2.0,42,0.00,,,0.00,meteobridge,2013-04-09 07:58:00,
2013-04-09 02:03:00,51.4,29.1,29.19,NNW,348,2.9,4.0,42,0.00,,,0.00,meteobridge,2013-04-09 08:03:00,
2013-04-09 02:08:00,51.4,29.1,29.19,NNW,338,2.0,4.0,42,0.00,,,0.00,meteobridge,2013-04-09 08:08:00,
2013-04-09 02:13:00,51.4,29.1,29.18,NNW,336,2.0,6.0,42,0.00,,,0.00,meteobridge,2013-04-09 08:13:00,
2013-04-09 02:18:00,51.4,29.1,29.18,NNW,338,0.9,4.9,42,0.00,,,0.00,meteobridge,2013-04-09 08:18:00,
2013-04-09 02:23:00,51.6,29.3,29.18,NW,320,0.0,2.0,42,0.00,,,0.00,meteobridge,2013-04-09 08:23:00,
2013-04-09 02:28:00,51.6,29.3,29.19,North,355,2.0,4.9,42,0.00,,,0.00,meteobridge,2013-04-09 08:28:00,
2013-04-09 02:33:00,51.6,28.8,29.18,NNW,344,4.0,4.9,41,0.00,,,0.00,meteobridge,2013-04-09 08:33:00,
2013-04-09 02:38:00,51.6,28.8,29.18,NNW,340,0.9,2.9,41,0.00,,,0.00,meteobridge,2013-04-09 08:38:00,
2013-04-09 02:43:00,51.6,28.8,29.20,NW,304,2.0,4.9,41,0.00,,,0.00,meteobridge,2013-04-09 08:43:00,
2013-04-09 02:48:00,51.4,29.1,29.20,NW,319,4.0,6.9,42,0.00,,,0.00,meteobridge,2013-04-09 08:48:00,
2013-04-09 02:53:00,51.3,28.9,29.19,NNW,348,8.1,8.1,42,0.00,,,0.00,meteobridge,2013-04-09 08:53:00,
2013-04-09 02:58:00,50.9,29.8,29.20,NW,325,0.9,4.0,44,0.00,,,0.00,meteobridge,2013-04-09 08:58:00,
2013-04-09 03:03:00,50.5,30.6,29.21,NW,313,0.9,2.0,46,0.00,,,0.00,meteobridge,2013-04-09 09:03:00,
2013-04-09 03:08:00,50.4,30.4,29.20,WNW,284,0.9,6.0,46,0.00,,,0.00,meteobridge,2013-04-09 09:08:00,
2013-04-09 03:13:00,50.2,30.7,29.19,NW,319,0.0,4.0,47,0.00,,,0.00,meteobridge,2013-04-09 09:13:00,
2013-04-09 03:18:00,49.8,30.4,29.18,NNW,344,4.0,6.9,47,0.00,,,0.00,meteobridge,2013-04-09 09:18:00,
2013-04-09 03:23:00,49.8,31.5,29.18,WNW,302,2.0,4.9,49,0.00,,,0.00,meteobridge,2013-04-09 09:23:00,
2013-04-09 03:29:00,49.6,31.8,29.18,NW,324,2.0,6.9,50,0.00,,,0.00,meteobridge,2013-04-09 09:29:00,
2013-04-09 03:34:00,49.5,31.6,29.18,NE,43,2.0,2.9,50,0.00,,,0.00,meteobridge,2013-04-09 09:34:00,
2013-04-09 03:39:00,49.5,32.0,29.18,NE,44,0.0,0.9,51,0.00,,,0.00,meteobridge,2013-04-09 09:39:00,
2013-04-09 03:44:00,49.6,32.2,29.19,NNE,15,0.0,2.9,51,0.00,,,0.00,meteobridge,2013-04-09 09:44:00,
2013-04-09 03:49:00,49.6,32.2,29.19,North,9,0.9,2.0,51,0.00,,,0.00,meteobridge,2013-04-09 09:49:00,
2013-04-09 03:54:00,49.6,32.2,29.19,WNW,298,0.9,2.9,51,0.00,,,0.00,meteobridge,2013-04-09 09:54:00,
2013-04-09 03:59:00,49.6,32.2,29.20,NNW,332,2.9,4.9,51,0.00,,,0.00,meteobridge,2013-04-09 09:59:00,
2013-04-09 04:04:00,49.8,32.9,29.18,North,351,2.9,6.0,52,0.00,,,0.00,meteobridge,2013-04-09 10:04:00,
2013-04-09 04:09:00,49.6,32.7,29.18,NNE,30,4.0,4.0,52,0.00,,,0.00,meteobridge,2013-04-09 10:09:00,
2013-04-09 04:14:00,49.6,32.2,29.17,NNE,18,2.9,4.9,51,0.00,,,0.00,meteobridge,2013-04-09 10:14:00,
2013-04-09 04:19:00,49.8,32.4,29.17,NE,46,2.9,4.0,51,0.00,,,0.00,meteobridge,2013-04-09 10:19:00,
2013-04-09 04:24:00,49.8,32.0,29.16,NE,50,2.9,6.9,50,0.00,,,0.00,meteobridge,2013-04-09 10:24:00,
2013-04-09 04:30:00,49.8,32.0,29.16,ESE,102,0.9,4.9,50,0.00,,,0.00,meteobridge,2013-04-09 10:30:00,
2013-04-09 04:35:00,50.0,33.6,29.17,ESE,107,0.9,2.9,53,0.00,,,0.00,meteobridge,2013-04-09 10:35:00,
2013-04-09 04:40:00,49.8,35.2,29.18,SSE,154,2.0,2.0,57,0.00,,,0.00,meteobridge,2013-04-09 10:40:00,
2013-04-09 04:45:00,49.6,34.5,29.18,South,182,2.0,6.9,56,0.00,,,0.00,meteobridge,2013-04-09 10:45:00,
2013-04-09 04:50:00,49.6,36.3,29.19,South,180,11.0,17.0,60,0.00,,,0.00,meteobridge,2013-04-09 10:50:00,
2013-04-09 04:55:00,49.3,35.1,29.20,SW,223,2.9,4.0,58,0.00,,,0.00,meteobridge,2013-04-09 10:55:00,
2013-04-09 05:00:00,48.4,35.6,29.20,NW,319,6.0,10.1,61,0.00,,,0.00,meteobridge,2013-04-09 11:00:00,
2013-04-09 05:05:00,47.8,36.3,29.20,West,271,2.9,6.9,64,0.01,,,0.01,meteobridge,2013-04-09 11:05:00,
2013-04-09 05:10:00,47.1,37.4,29.21,South,178,2.9,8.9,69,0.01,,,0.01,meteobridge,2013-04-09 11:10:00,
2013-04-09 05:15:00,46.6,36.5,29.21,South,184,6.0,10.1,68,0.02,,,0.02,meteobridge,2013-04-09 11:15:00,
2013-04-09 05:20:00,45.7,37.6,29.22,SW,217,2.9,4.9,73,0.02,,,0.02,meteobridge,2013-04-09 11:20:00,
2013-04-09 05:25:00,45.7,36.1,29.21,SSE,165,4.9,10.1,69,0.02,,,0.02,meteobridge,2013-04-09 11:25:00,
2013-04-09 05:30:00,46.0,36.5,29.21,SSE,163,0.9,8.9,69,0.02,,,0.02,meteobridge,2013-04-09 11:30:00,
2013-04-09 05:35:00,46.6,36.1,29.21,SSE,157,14.1,15.0,67,0.03,,,0.03,meteobridge,2013-04-09 11:35:00,
2013-04-09 05:41:00,46.9,35.8,29.21,South,174,4.0,8.1,65,0.03,,,0.03,meteobridge,2013-04-09 11:41:00,
2013-04-09 05:46:00,47.3,35.8,29.22,South,175,2.0,6.0,64,0.03,,,0.03,meteobridge,2013-04-09 11:46:00,
2013-04-09 05:51:00,47.7,35.6,29.22,SSE,150,4.0,13.0,63,0.03,,,0.03,meteobridge,2013-04-09 11:51:00,
2013-04-09 05:56:00,47.8,36.3,29.22,South,182,4.0,6.0,64,0.03,,,0.03,meteobridge,2013-04-09 11:56:00,
2013-04-09 06:01:00,47.8,35.4,29.23,WSW,244,2.0,6.0,62,0.03,,,0.03,meteobridge,2013-04-09 12:01:00,
2013-04-09 06:06:00,47.8,35.4,29.23,SW,227,2.9,8.1,62,0.02,,,0.03,meteobridge,2013-04-09 12:06:00,
2013-04-09 06:11:00,48.0,34.9,29.23,SSW,212,2.9,4.9,60,0.02,,,0.03,meteobridge,2013-04-09 12:11:00,
2013-04-09 06:16:00,48.0,34.0,29.23,South,176,2.0,4.0,58,0.01,,,0.03,meteobridge,2013-04-09 12:16:00,
2013-04-09 06:21:00,48.0,34.0,29.23,SSW,213,0.0,2.9,58,0.01,,,0.03,meteobridge,2013-04-09 12:21:00,
2013-04-09 06:26:00,48.0,33.4,29.24,SW,231,6.0,6.9,57,0.01,,,0.03,meteobridge,2013-04-09 12:26:00,
2013-04-09 06:31:00,48.0,34.0,29.24,SSW,213,2.9,2.9,58,0.00,,,0.03,meteobridge,2013-04-09 12:31:00,
2013-04-09 06:36:00,47.8,35.1,29.24,SSW,192,0.0,2.9,61,0.00,,,0.03,meteobridge,2013-04-09 12:36:00,
2013-04-09 06:41:00,47.7,34.5,29.25,South,183,0.0,2.0,60,0.00,,,0.03,meteobridge,2013-04-09 12:41:00,
2013-04-09 06:46:00,47.5,33.4,29.25,South,173,2.9,8.9,58,0.00,,,0.03,meteobridge,2013-04-09 12:46:00,
2013-04-09 06:51:00,47.8,31.5,29.26,SE,142,4.9,8.1,53,0.00,,,0.03,meteobridge,2013-04-09 12:51:00,
2013-04-09 06:56:00,48.0,29.8,29.26,South,181,2.9,14.1,49,0.00,,,0.03,meteobridge,2013-04-09 12:56:00,
2013-04-09 07:01:00,48.4,29.7,29.27,SW,218,8.1,15.0,48,0.00,,,0.03,meteobridge,2013-04-09 13:01:00,
2013-04-09 07:07:00,48.0,30.7,29.27,South,190,10.1,11.0,51,0.00,,,0.03,meteobridge,2013-04-09 13:07:00,
2013-04-09 07:12:00,47.7,30.4,29.28,SE,127,6.0,10.1,51,0.00,,,0.03,meteobridge,2013-04-09 13:12:00,
2013-04-09 07:17:00,47.5,30.7,29.28,SW,214,6.9,12.1,52,0.00,,,0.03,meteobridge,2013-04-09 13:17:00,
2013-04-09 07:22:00,47.1,31.3,29.28,SW,235,6.9,10.1,54,0.00,,,0.03,meteobridge,2013-04-09 13:22:00,
2013-04-09 07:27:00,46.2,31.8,29.29,WSW,241,6.0,10.1,57,0.00,,,0.03,meteobridge,2013-04-09 13:27:00,
2013-04-09 07:32:00,45.5,32.4,29.29,SW,224,4.9,6.9,60,0.00,,,0.03,meteobridge,2013-04-09 13:32:00,
2013-04-09 07:37:00,45.1,32.0,29.30,SSW,202,4.9,8.9,60,0.00,,,0.03,meteobridge,2013-04-09 13:37:00,
2013-04-09 07:42:00,45.1,32.0,29.31,SSE,159,6.9,8.1,60,0.00,,,0.03,meteobridge,2013-04-09 13:42:00,
2013-04-09 07:47:00,45.0,31.5,29.31,SSW,205,2.0,10.1,59,0.00,,,0.03,meteobridge,2013-04-09 13:47:00,
2013-04-09 07:52:00,45.0,30.6,29.31,South,191,6.9,14.1,57,0.00,,,0.03,meteobridge,2013-04-09 13:52:00,
2013-04-09 07:57:00,44.8,27.3,29.31,SSE,161,11.0,17.9,50,0.00,,,0.03,meteobridge,2013-04-09 13:57:00,
2013-04-09 08:02:00,44.6,26.6,29.31,South,191,13.0,17.0,49,0.00,,,0.03,meteobridge,2013-04-09 14:02:00,
2013-04-09 08:07:00,44.8,26.8,29.31,South,184,14.1,16.1,49,0.00,,,0.03,meteobridge,2013-04-09 14:07:00,
2013-04-09 08:12:00,45.1,26.6,29.31,SW,217,6.0,17.9,48,0.00,,,0.03,meteobridge,2013-04-09 14:12:00,
2013-04-09 08:17:00,45.5,27.0,29.31,South,186,6.9,15.0,48,0.00,,,0.03,meteobridge,2013-04-09 14:17:00,
2013-04-09 08:22:00,45.7,27.7,29.31,SW,228,6.9,15.0,49,0.00,,,0.03,meteobridge,2013-04-09 14:22:00,
2013-04-09 08:27:00,45.7,27.7,29.31,SSW,211,6.9,13.0,49,0.00,,,0.03,meteobridge,2013-04-09 14:27:00,
2013-04-09 08:32:00,45.9,27.3,29.32,South,183,4.0,16.1,48,0.00,,,0.03,meteobridge,2013-04-09 14:32:00,
2013-04-09 08:37:00,45.9,27.3,29.32,South,180,11.0,19.0,48,0.00,,,0.03,meteobridge,2013-04-09 14:37:00,
2013-04-09 08:42:00,45.9,27.3,29.33,SSW,197,4.0,17.9,48,0.00,,,0.03,meteobridge,2013-04-09 14:42:00,
2013-04-09 08:47:00,45.7,26.6,29.34,WSW,250,6.0,13.0,47,0.00,,,0.03,meteobridge,2013-04-09 14:47:00,
2013-04-09 08:52:00,45.5,26.4,29.34,SW,217,10.1,19.0,47,0.00,,,0.03,meteobridge,2013-04-09 14:52:00,
2013-04-09 08:57:00,45.7,27.1,29.34,SW,232,4.0,17.9,48,0.00,,,0.03,meteobridge,2013-04-09 14:57:00,
2013-04-09 09:02:00,45.9,26.8,29.34,West,262,11.0,13.0,47,0.00,,,0.03,meteobridge,2013-04-09 15:02:00,
2013-04-09 09:07:00,45.9,26.2,29.34,SSW,211,2.0,12.1,46,0.00,,,0.03,meteobridge,2013-04-09 15:07:00,
2013-04-09 09:12:00,46.0,26.4,29.35,WSW,252,6.0,11.0,46,0.00,,,0.03,meteobridge,2013-04-09 15:12:00,
2013-04-09 09:17:00,46.0,25.9,29.36,SSW,209,8.1,16.1,45,0.00,,,0.03,meteobridge,2013-04-09 15:17:00,
2013-04-09 09:23:00,45.7,26.6,29.36,SSW,206,6.0,17.0,47,0.00,,,0.03,meteobridge,2013-04-09 15:23:00,
2013-04-09 09:28:00,45.0,27.5,29.37,SSW,200,8.9,11.0,50,0.00,,,0.03,meteobridge,2013-04-09 15:28:00,
2013-04-09 09:33:00,44.4,27.5,29.38,SW,220,12.1,12.1,51,0.00,,,0.03,meteobridge,2013-04-09 15:33:00,
2013-04-09 09:38:00,44.1,28.9,29.39,SSW,198,11.0,16.1,55,0.00,,,0.03,meteobridge,2013-04-09 15:38:00,
2013-04-09 09:43:00,43.0,29.3,29.39,South,190,6.9,10.1,58,0.00,,,0.03,meteobridge,2013-04-09 15:43:00,
2013-04-09 09:48:00,42.6,29.3,29.39,WSW,242,12.1,16.1,59,0.00,,,0.03,meteobridge,2013-04-09 15:48:00,
2013-04-09 09:53:00,42.3,30.9,29.40,SSE,161,2.9,6.9,64,0.00,,,0.03,meteobridge,2013-04-09 15:53:00,
2013-04-09 09:58:00,42.4,31.1,29.41,SSW,204,4.0,4.0,64,0.00,,,0.03,meteobridge,2013-04-09 15:58:00,
2013-04-09 10:03:00,42.6,30.9,29.41,SW,234,4.9,6.0,63,0.00,,,0.03,meteobridge,2013-04-09 16:03:00,
2013-04-09 10:08:00,42.1,32.4,29.41,South,187,0.9,8.9,68,0.00,,,0.03,meteobridge,2013-04-09 16:08:00,
2013-04-09 10:13:00,41.5,32.2,29.41,South,169,2.9,8.1,69,0.00,,,0.03,meteobridge,2013-04-09 16:13:00,
2013-04-09 10:18:00,41.4,33.1,29.42,SW,222,4.0,4.0,72,0.00,,,0.03,meteobridge,2013-04-09 16:18:00,
2013-04-09 10:23:00,41.9,32.9,29.41,SSE,163,2.9,6.0,70,0.00,,,0.03,meteobridge,2013-04-09 16:23:00,
2013-04-09 10:28:00,42.6,32.7,29.42,SSW,192,4.9,6.9,68,0.00,,,0.03,meteobridge,2013-04-09 16:28:00,
2013-04-09 10:33:00,43.0,32.0,29.42,SSW,200,0.9,4.9,65,0.00,,,0.03,meteobridge,2013-04-09 16:33:00,
2013-04-09 10:39:00,43.0,32.4,29.42,WSW,257,2.0,4.0,66,0.00,,,0.03,meteobridge,2013-04-09 16:39:00,
2013-04-09 10:44:00,43.0,31.3,29.42,SE,133,2.9,2.9,63,0.00,,,0.03,meteobridge,2013-04-09 16:44:00,
2013-04-09 10:49:00,43.2,31.5,29.42,SSE,165,2.0,4.0,63,0.00,,,0.03,meteobridge,2013-04-09 16:49:00,
2013-04-09 10:54:00,43.7,31.5,29.42,SE,132,2.9,8.9,62,0.00,,,0.03,meteobridge,2013-04-09 16:54:00,
2013-04-09 10:59:00,43.9,33.3,29.42,SSE,154,4.0,6.9,66,0.00,,,0.03,meteobridge,2013-04-09 16:59:00,
2013-04-09 11:04:00,44.4,31.5,29.43,SSW,192,6.9,11.0,60,0.00,,,0.03,meteobridge,2013-04-09 17:04:00,
2013-04-09 11:09:00,44.6,29.5,29.43,SW,221,4.9,8.9,55,0.00,,,0.03,meteobridge,2013-04-09 17:09:00,
2013-04-09 11:14:00,45.0,30.6,29.43,South,183,0.0,2.0,57,0.00,,,0.03,meteobridge,2013-04-09 17:14:00,
2013-04-09 11:19:00,46.0,30.4,29.43,NW,323,0.9,2.9,54,0.00,,,0.03,meteobridge,2013-04-09 17:19:00,
2013-04-09 11:24:00,46.6,30.4,29.43,WSW,244,4.9,6.0,53,0.00,,,0.03,meteobridge,2013-04-09 17:24:00,
2013-04-09 11:29:00,46.9,30.7,29.44,SW,228,6.9,6.9,53,0.00,,,0.03,meteobridge,2013-04-09 17:29:00,
2013-04-09 11:34:00,46.8,30.0,29.44,WNW,290,2.0,6.9,52,0.00,,,0.03,meteobridge,2013-04-09 17:34:00,
2013-04-09 11:39:00,47.1,30.4,29.44,SW,232,4.0,6.0,52,0.00,,,0.03,meteobridge,2013-04-09 17:39:00,
2013-04-09 11:44:00,47.7,30.0,29.44,WNW,291,2.0,6.0,50,0.00,,,0.03,meteobridge,2013-04-09 17:44:00,
2013-04-09 11:49:00,48.2,28.4,29.44,WSW,250,0.0,6.9,46,0.00,,,0.03,meteobridge,2013-04-09 17:49:00,
2013-04-09 11:54:00,47.8,29.7,29.44,WNW,290,0.0,6.9,49,0.00,,,0.03,meteobridge,2013-04-09 17:54:00,
2013-04-09 11:59:00,49.5,27.9,29.44,WSW,244,2.0,2.9,43,0.00,,,0.03,meteobridge,2013-04-09 17:59:00,
2013-04-09 12:04:00,50.4,30.4,29.44,NW,306,6.0,8.9,46,0.00,,,0.03,meteobridge,2013-04-09 18:04:00,
2013-04-09 12:09:00,50.5,31.1,29.44,WNW,298,0.9,4.9,47,0.00,,,0.03,meteobridge,2013-04-09 18:09:00,
2013-04-09 12:14:00,50.9,29.1,29.44,WNW,287,2.9,4.9,43,0.00,,,0.03,meteobridge,2013-04-09 18:14:00,
2013-04-09 12:20:00,50.7,29.7,29.44,NW,319,0.0,2.9,44,0.00,,,0.03,meteobridge,2013-04-09 18:20:00,
2013-04-09 12:25:00,50.2,29.1,29.44,WSW,246,6.0,6.9,44,0.00,,,0.03,meteobridge,2013-04-09 18:25:00,
2013-04-09 12:30:00,50.0,28.9,29.44,WSW,252,6.0,10.1,44,0.00,,,0.03,meteobridge,2013-04-09 18:30:00,
2013-04-09 12:35:00,48.9,29.1,29.45,SSW,202,6.0,10.1,46,0.00,,,0.03,meteobridge,2013-04-09 18:35:00,
2013-04-09 12:40:00,48.4,29.7,29.45,WSW,258,2.0,11.0,48,0.00,,,0.03,meteobridge,2013-04-09 18:40:00,
2013-04-09 12:45:00,48.6,30.2,29.45,West,264,0.0,6.0,49,0.00,,,0.03,meteobridge,2013-04-09 18:45:00,
2013-04-09 12:50:00,47.8,28.6,29.45,South,188,6.0,10.1,47,0.00,,,0.03,meteobridge,2013-04-09 18:50:00,
2013-04-09 12:55:00,47.1,29.5,29.46,South,186,6.0,10.1,50,0.00,,,0.03,meteobridge,2013-04-09 18:55:00,
2013-04-09 13:00:00,46.0,29.5,29.46,South,169,6.9,10.1,52,0.00,,,0.03,meteobridge,2013-04-09 19:00:00,
2013-04-09 13:05:00,45.9,28.8,29.46,SSW,203,6.0,8.9,51,0.00,,,0.03,meteobridge,2013-04-09 19:05:00,
2013-04-09 13:10:00,45.9,28.8,29.46,ESE,104,4.9,12.1,51,0.00,,,0.03,meteobridge,2013-04-09 19:10:00,
2013-04-09 13:15:00,46.0,27.0,29.46,SSE,163,4.0,13.0,47,0.00,,,0.03,meteobridge,2013-04-09 19:15:00,
2013-04-09 13:20:00,46.2,27.1,29.46,South,180,6.0,15.0,47,0.00,,,0.03,meteobridge,2013-04-09 19:20:00,
2013-04-09 13:25:00,46.2,26.6,29.46,ESE,118,4.9,10.1,46,0.00,,,0.03,meteobridge,2013-04-09 19:25:00,
2013-04-09 13:30:00,46.6,26.4,29.46,SE,139,12.1,17.0,45,0.00,,,0.03,meteobridge,2013-04-09 19:30:00,
2013-04-09 13:35:00,46.6,27.0,29.46,ESE,108,8.1,13.0,46,0.00,,,0.03,meteobridge,2013-04-09 19:35:00,
2013-04-09 13:40:00,46.0,27.0,29.45,ESE,110,6.9,16.1,47,0.00,,,0.03,meteobridge,2013-04-09 19:40:00,
2013-04-09 13:45:00,45.7,27.7,29.46,ESE,117,2.9,11.0,49,0.00,,,0.03,meteobridge,2013-04-09 19:45:00,
2013-04-09 13:50:00,45.5,27.5,29.47,SE,134,6.0,8.1,49,0.00,,,0.03,meteobridge,2013-04-09 19:50:00,
2013-04-09 13:55:00,45.3,28.8,29.47,SE,144,2.9,10.1,52,0.00,,,0.03,meteobridge,2013-04-09 19:55:00,
2013-04-09 14:00:00,45.0,28.4,29.47,ESE,115,8.1,11.0,52,0.00,,,0.03,meteobridge,2013-04-09 20:00:00,
2013-04-09 14:05:00,45.3,29.1,29.48,South,169,4.9,8.9,53,0.00,,,0.03,meteobridge,2013-04-09 20:05:00,
2013-04-09 14:10:00,45.7,28.6,29.48,SSE,153,8.1,8.9,51,0.00,,,0.03,meteobridge,2013-04-09 20:10:00,
2013-04-09 14:15:00,45.9,29.7,29.49,SSE,153,2.0,4.0,53,0.00,,,0.03,meteobridge,2013-04-09 20:15:00,
2013-04-09 14:21:00,46.0,29.5,29.49,SSE,166,0.9,8.1,52,0.00,,,0.03,meteobridge,2013-04-09 20:21:00,
2013-04-09 14:26:00,45.9,30.6,29.49,SE,139,4.9,6.9,55,0.00,,,0.03,meteobridge,2013-04-09 20:26:00,
2013-04-09 14:31:00,45.5,31.1,29.49,SE,138,6.9,12.1,57,0.00,,,0.03,meteobridge,2013-04-09 20:31:00,
2013-04-09 14:36:00,45.1,32.0,29.49,SSE,153,6.0,8.1,60,0.00,,,0.03,meteobridge,2013-04-09 20:36:00,
2013-04-09 14:41:00,45.3,32.2,29.49,SSE,166,2.9,6.9,60,0.00,,,0.03,meteobridge,2013-04-09 20:41:00,
2013-04-09 14:46:00,45.9,31.5,29.50,SSE,150,8.1,10.1,57,0.00,,,0.03,meteobridge,2013-04-09 20:46:00,
2013-04-09 14:51:00,45.7,30.0,29.50,SW,223,4.9,8.9,54,0.00,,,0.03,meteobridge,2013-04-09 20:51:00,
2013-04-09 14:56:00,45.1,31.6,29.51,South,171,6.9,8.9,59,0.00,,,0.03,meteobridge,2013-04-09 20:56:00,
2013-04-09 15:01:00,44.2,32.0,29.52,South,179,4.0,11.0,62,0.00,,,0.03,meteobridge,2013-04-09 21:01:00,
2013-04-09 15:06:00,44.1,32.4,29.53,SW,218,4.0,10.1,63,0.00,,,0.03,meteobridge,2013-04-09 21:06:00,
2013-04-09 15:12:00,43.7,33.4,29.53,SSW,192,2.0,8.1,67,0.01,,,0.04,meteobridge,2013-04-09 21:12:00,
2013-04-09 15:17:00,43.0,34.9,29.54,WSW,237,0.9,0.9,73,0.01,,,0.04,meteobridge,2013-04-09 21:17:00,
2013-04-09 15:22:00,42.8,34.7,29.54,NW,309,0.9,2.9,73,0.01,,,0.04,meteobridge,2013-04-09 21:22:00,
2013-04-09 15:27:00,42.6,34.2,29.55,SSE,167,0.9,2.9,72,0.01,,,0.04,meteobridge,2013-04-09 21:27:00,
2013-04-09 15:32:00,42.6,36.0,29.55,SSW,198,2.9,4.9,77,0.02,,,0.05,meteobridge,2013-04-09 21:32:00,
2013-04-09 15:37:00,41.7,34.3,29.56,SSE,156,2.0,6.0,75,0.02,,,0.05,meteobridge,2013-04-09 21:37:00,
2013-04-09 15:42:00,41.4,35.1,29.57,SW,229,0.0,6.9,78,0.03,,,0.06,meteobridge,2013-04-09 21:42:00,
2013-04-09 15:47:00,41.0,34.7,29.57,SW,214,0.9,4.0,78,0.03,,,0.06,meteobridge,2013-04-09 21:47:00,
2013-04-09 15:52:00,41.2,35.8,29.57,SE,146,2.0,2.9,81,0.04,,,0.07,meteobridge,2013-04-09 21:52:00,
2013-04-09 15:57:00,40.8,35.4,29.57,ENE,77,2.9,6.0,81,0.05,,,0.08,meteobridge,2013-04-09 21:57:00,
2013-04-09 16:02:00,40.6,35.6,29.56,ESE,114,4.9,8.1,82,0.05,,,0.08,meteobridge,2013-04-09 22:02:00,
2013-04-09 16:07:00,40.5,35.4,29.55,ESE,113,4.0,8.1,82,0.05,,,0.08,meteobridge,2013-04-09 22:07:00,
2013-04-09 16:12:00,40.6,35.6,29.55,ESE,107,4.0,13.0,82,0.05,,,0.09,meteobridge,2013-04-09 22:12:00,
2013-04-09 16:17:00,40.6,35.6,29.54,East,99,6.0,10.1,82,0.05,,,0.09,meteobridge,2013-04-09 22:17:00,
2013-04-09 16:22:00,40.6,36.0,29.54,SE,134,6.0,11.0,83,0.05,,,0.09,meteobridge,2013-04-09 22:22:00,
2013-04-09 16:27:00,41.2,36.5,29.54,East,101,6.0,11.0,83,0.05,,,0.09,meteobridge,2013-04-09 22:27:00,
2013-04-09 16:32:00,41.2,36.5,29.55,SSE,150,6.0,13.0,83,0.04,,,0.09,meteobridge,2013-04-09 22:32:00,
2013-04-09 16:37:00,41.4,36.9,29.55,ESE,122,6.9,12.1,84,0.03,,,0.09,meteobridge,2013-04-09 22:37:00,
2013-04-09 16:42:00,41.5,37.0,29.55,ESE,121,11.0,15.0,84,0.03,,,0.09,meteobridge,2013-04-09 22:42:00,
2013-04-09 16:47:00,41.5,36.5,29.54,ENE,67,6.9,12.1,82,0.02,,,0.09,meteobridge,2013-04-09 22:47:00,
2013-04-09 16:52:00,41.9,36.9,29.54,East,101,8.1,13.0,82,0.02,,,0.09,meteobridge,2013-04-09 22:52:00,
2013-04-09 16:57:00,42.3,36.5,29.54,SE,132,8.1,12.1,80,0.01,,,0.09,meteobridge,2013-04-09 22:57:00,
2013-04-09 17:03:00,42.6,36.5,29.55,ESE,115,4.9,13.0,79,0.01,,,0.09,meteobridge,2013-04-09 23:03:00,
2013-04-09 17:08:00,43.0,36.7,29.55,SE,126,8.1,11.0,78,0.01,,,0.09,meteobridge,2013-04-09 23:08:00,
2013-04-09 17:13:00,43.5,36.9,29.55,ESE,121,2.9,11.0,77,0.00,,,0.09,meteobridge,2013-04-09 23:13:00,
2013-04-09 17:18:00,44.1,36.3,29.55,ESE,118,6.9,11.0,74,0.00,,,0.09,meteobridge,2013-04-09 23:18:00,
2013-04-09 17:23:00,45.0,36.9,29.55,East,101,2.9,8.9,73,0.00,,,0.09,meteobridge,2013-04-09 23:23:00,
2013-04-09 17:28:00,46.0,36.5,29.56,South,174,4.0,10.1,69,0.00,,,0.09,meteobridge,2013-04-09 23:28:00,
2013-04-09 17:33:00,45.9,36.0,29.56,East,80,2.0,8.1,68,0.00,,,0.09,meteobridge,2013-04-09 23:33:00,
2013-04-09 17:38:00,45.9,35.1,29.57,SE,139,4.0,6.9,66,0.00,,,0.09,meteobridge,2013-04-09 23:38:00,
2013-04-09 17:43:00,46.0,34.5,29.57,ESE,116,10.1,11.0,64,0.00,,,0.09,meteobridge,2013-04-09 23:43:00,
2013-04-09 17:48:00,46.0,33.8,29.58,ESE,120,6.9,11.0,62,0.00,,,0.09,meteobridge,2013-04-09 23:48:00,
2013-04-09 17:53:00,46.2,34.7,29.58,SE,142,0.9,4.9,64,0.00,,,0.09,meteobridge,2013-04-09 23:53:00,
2013-04-09 17:58:00,46.4,33.3,29.59,ESE,119,4.9,8.9,60,0.00,,,0.09,meteobridge,2013-04-09 23:58:00,
2013-04-09 18:03:00,46.6,33.1,29.59,South,178,4.0,4.9,59,0.00,,,0.09,meteobridge,2013-04-10 00:03:00,
2013-04-09 18:08:00,46.6,33.1,29.60,SSE,151,4.9,8.1,59,0.00,,,0.09,meteobridge,2013-04-10 00:08:00,
2013-04-09 18:13:00,46.6,33.1,29.60,ESE,119,4.9,8.9,59,0.00,,,0.09,meteobridge,2013-04-10 00:13:00,
2013-04-09 18:18:00,46.6,33.1,29.61,SE,128,2.9,6.9,59,0.00,,,0.09,meteobridge,2013-04-10 00:18:00,
2013-04-09 18:23:00,46.6,32.5,29.61,SE,135,4.0,8.1,58,0.00,,,0.09,meteobridge,2013-04-10 00:23:00,
2013-04-09 18:28:00,46.6,32.5,29.61,SE,125,4.9,6.9,58,0.00,,,0.09,meteobridge,2013-04-10 00:28:00,
2013-04-09 18:33:00,46.6,32.5,29.61,South,177,4.9,6.9,58,0.00,,,0.09,meteobridge,2013-04-10 00:33:00,
2013-04-09 18:38:00,46.2,32.7,29.61,SSE,153,4.9,6.0,59,0.00,,,0.09,meteobridge,2013-04-10 00:38:00,
2013-04-09 18:43:00,46.0,33.3,29.61,SSE,149,2.9,8.1,61,0.00,,,0.09,meteobridge,2013-04-10 00:43:00,
2013-04-09 18:48:00,46.0,33.8,29.61,SE,128,2.9,8.1,62,0.00,,,0.09,meteobridge,2013-04-10 00:48:00,
2013-04-09 18:53:00,45.9,33.6,29.61,SE,130,4.0,6.9,62,0.00,,,0.09,meteobridge,2013-04-10 00:53:00,
2013-04-09 18:58:00,45.9,33.3,29.62,SE,146,6.9,10.1,61,0.00,,,0.09,meteobridge,2013-04-10 00:58:00,
2013-04-09 19:03:00,45.7,33.4,29.62,SE,126,4.0,6.0,62,0.00,,,0.09,meteobridge,2013-04-10 01:03:00,
2013-04-09 19:08:00,45.7,32.5,29.63,ESE,119,2.0,10.1,60,0.00,,,0.09,meteobridge,2013-04-10 01:08:00,
2013-04-09 19:13:00,45.9,32.7,29.63,ESE,117,6.9,8.1,60,0.00,,,0.09,meteobridge,2013-04-10 01:13:00,
2013-04-09 19:18:00,45.9,32.7,29.64,SE,138,2.9,8.1,60,0.00,,,0.09,meteobridge,2013-04-10 01:18:00,
2013-04-09 19:23:00,45.9,33.6,29.65,South,176,0.9,8.9,62,0.00,,,0.09,meteobridge,2013-04-10 01:23:00,
2013-04-09 19:29:00,45.5,33.3,29.65,SSW,193,2.9,8.1,62,0.00,,,0.09,meteobridge,2013-04-10 01:29:00,
2013-04-09 19:34:00,45.3,33.4,29.67,South,188,0.9,4.9,63,0.00,,,0.09,meteobridge,2013-04-10 01:34:00,
2013-04-09 19:39:00,45.1,33.6,29.67,SW,222,0.9,4.0,64,0.00,,,0.09,meteobridge,2013-04-10 01:39:00,
2013-04-09 19:44:00,45.1,33.6,29.67,SW,214,2.9,4.0,64,0.00,,,0.09,meteobridge,2013-04-10 01:44:00,
2013-04-09 19:49:00,45.0,34.0,29.67,SW,232,4.0,4.0,65,0.00,,,0.09,meteobridge,2013-04-10 01:49:00,
2013-04-09 19:54:00,45.0,34.3,29.67,SW,225,2.9,6.0,66,0.00,,,0.09,meteobridge,2013-04-10 01:54:00,
2013-04-09 19:59:00,44.8,34.5,29.67,SE,146,4.0,4.9,67,0.00,,,0.09,meteobridge,2013-04-10 01:59:00,
2013-04-09 20:04:00,44.6,34.3,29.68,SE,139,0.9,2.9,67,0.00,,,0.09,meteobridge,2013-04-10 02:04:00,
2013-04-09 20:09:00,44.4,34.5,29.68,SE,128,2.0,4.9,68,0.00,,,0.09,meteobridge,2013-04-10 02:09:00,
2013-04-09 20:14:00,44.2,35.1,29.68,SE,131,0.9,2.0,70,0.00,,,0.09,meteobridge,2013-04-10 02:14:00,
2013-04-09 20:19:00,44.1,34.5,29.69,ESE,114,2.0,2.0,69,0.00,,,0.09,meteobridge,2013-04-10 02:19:00,
2013-04-09 20:25:00,44.1,34.5,29.70,South,177,0.0,4.9,69,0.00,,,0.09,meteobridge,2013-04-10 02:25:00,
2013-04-09 20:30:00,43.9,34.3,29.70,SSE,155,0.9,2.9,69,0.00,,,0.09,meteobridge,2013-04-10 02:30:00,
2013-04-09 20:35:00,43.9,34.7,29.70,South,171,2.0,4.0,70,0.00,,,0.09,meteobridge,2013-04-10 02:35:00,
2013-04-09 20:40:00,43.7,34.5,29.70,SE,124,2.0,4.0,70,0.00,,,0.09,meteobridge,2013-04-10 02:40:00,
2013-04-09 20:45:00,43.3,34.2,29.70,ESE,120,2.0,4.0,70,0.00,,,0.09,meteobridge,2013-04-10 02:45:00,
2013-04-09 20:50:00,43.2,34.3,29.70,ESE,121,0.9,4.0,71,0.00,,,0.09,meteobridge,2013-04-10 02:50:00,
2013-04-09 20:55:00,43.0,34.2,29.70,SE,140,2.0,6.0,71,0.00,,,0.09,meteobridge,2013-04-10 02:55:00,
2013-04-09 21:00:00,42.8,34.3,29.70,SSE,159,0.9,4.9,72,0.00,,,0.09,meteobridge,2013-04-10 03:00:00,
2013-04-09 21:05:00,42.6,34.2,29.70,East,88,4.9,4.9,72,0.00,,,0.09,meteobridge,2013-04-10 03:05:00,
2013-04-09 21:10:00,42.4,34.0,29.71,SE,132,2.9,4.9,72,0.00,,,0.09,meteobridge,2013-04-10 03:10:00,
2013-04-09 21:15:00,42.4,34.0,29.71,ESE,121,2.0,4.0,72,0.00,,,0.09,meteobridge,2013-04-10 03:15:00,
2013-04-09 21:20:00,42.4,34.0,29.71,SSE,150,0.9,2.9,72,0.00,,,0.09,meteobridge,2013-04-10 03:20:00,
2013-04-09 21:25:00,42.6,33.8,29.72,East,82,4.9,4.9,71,0.00,,,0.09,meteobridge,2013-04-10 03:25:00,
2013-04-09 21:30:00,42.6,33.4,29.72,SE,137,0.9,2.9,70,0.00,,,0.09,meteobridge,2013-04-10 03:30:00,
2013-04-09 21:35:00,42.4,33.6,29.72,SE,138,0.0,2.0,71,0.00,,,0.09,meteobridge,2013-04-10 03:35:00,
2013-04-09 21:40:00,42.3,33.8,29.73,SE,138,0.0,0.9,72,0.00,,,0.09,meteobridge,2013-04-10 03:40:00,
2013-04-09 21:46:00,42.3,33.8,29.73,SSE,150,0.0,2.0,72,0.00,,,0.09,meteobridge,2013-04-10 03:46:00,
2013-04-09 21:51:00,42.4,33.6,29.73,ESE,123,0.0,4.0,71,0.00,,,0.09,meteobridge,2013-04-10 03:51:00,
2013-04-09 21:56:00,42.6,33.8,29.73,ESE,117,0.0,0.9,71,0.00,,,0.09,meteobridge,2013-04-10 03:56:00,
2013-04-09 22:00:00,42.6,33.4,29.73,SE,140,0.0,2.9,70,0.00,,,0.09,meteobridge,2013-04-10 04:00:00,
2013-04-09 22:01:00,42.6,33.4,29.73,SE,146,2.9,2.9,70,0.00,,,0.09,meteobridge,2013-04-10 04:01:00,
2013-04-09 22:06:00,42.4,33.4,29.74,SSE,151,0.0,2.0,70,0.00,,,0.09,meteobridge,2013-04-10 04:06:00,
2013-04-09 22:11:00,42.3,33.3,29.74,SSE,165,0.0,0.9,70,0.00,,,0.09,meteobridge,2013-04-10 04:11:00,
2013-04-09 22:16:00,42.1,33.1,29.74,SSE,165,0.0,2.0,70,0.00,,,0.09,meteobridge,2013-04-10 04:16:00,
2013-04-09 22:21:00,42.1,33.1,29.74,SW,215,0.0,6.0,70,0.00,,,0.09,meteobridge,2013-04-10 04:21:00,
2013-04-09 22:27:00,42.1,33.1,29.74,South,175,0.9,2.9,70,0.00,,,0.09,meteobridge,2013-04-10 04:27:00,
2013-04-09 22:32:00,42.1,33.1,29.74,South,174,2.0,2.9,70,0.00,,,0.09,meteobridge,2013-04-10 04:32:00,
2013-04-09 22:37:00,41.9,33.3,29.75,SE,136,4.0,4.0,71,0.00,,,0.09,meteobridge,2013-04-10 04:37:00,
2013-04-09 22:41:00,41.7,33.4,29.75,SE,134,4.9,6.0,72,0.00,,,0.09,meteobridge,2013-04-10 04:41:00,
2013-04-09 22:46:00,41.7,33.4,29.75,South,173,4.0,11.0,72,0.00,,,0.09,meteobridge,2013-04-10 04:46:00,
2013-04-09 22:52:00,41.5,33.6,29.75,South,170,2.0,6.0,73,0.00,,,0.09,meteobridge,2013-04-10 04:52:00,
2013-04-09 22:57:00,41.4,33.6,29.75,SSW,194,0.9,4.0,74,0.00,,,0.09,meteobridge,2013-04-10 04:57:00,
2013-04-09 23:02:00,41.2,33.4,29.75,SSE,165,0.9,4.9,74,0.00,,,0.09,meteobridge,2013-04-10 05:02:00,
2013-04-09 23:07:00,40.8,33.4,29.76,SSE,160,2.0,4.0,75,0.00,,,0.09,meteobridge,2013-04-10 05:07:00,
2013-04-09 23:12:00,40.8,33.4,29.76,SSE,162,2.0,4.9,75,0.00,,,0.09,meteobridge,2013-04-10 05:12:00,
2013-04-09 23:17:00,40.8,33.4,29.76,SE,144,2.9,6.9,75,0.00,,,0.09,meteobridge,2013-04-10 05:17:00,
2013-04-09 23:22:00,41.0,33.6,29.77,SSE,156,4.0,6.0,75,0.00,,,0.09,meteobridge,2013-04-10 05:22:00,
2013-04-09 23:27:00,41.2,33.8,29.77,South,178,2.9,2.9,75,0.00,,,0.09,meteobridge,2013-04-10 05:27:00,
2013-04-09 23:32:00,41.2,33.4,29.77,SSE,167,0.9,4.0,74,0.00,,,0.09,meteobridge,2013-04-10 05:32:00,
2013-04-09 23:37:00,41.4,33.6,29.77,SSE,154,2.0,4.0,74,0.00,,,0.09,meteobridge,2013-04-10 05:37:00,
2013-04-09 23:42:00,41.4,33.6,29.77,SSE,153,2.0,4.0,74,0.00,,,0.09,meteobridge,2013-04-10 05:42:00,
2013-04-09 23:47:00,41.4,33.4,29.77,SSE,164,0.9,4.9,73,0.00,,,0.09,meteobridge,2013-04-10 05:47:00,
2013-04-09 23:52:00,41.5,33.6,29.78,SSE,165,0.0,2.9,73,0.00,,,0.09,meteobridge,2013-04-10 05:52:00,
2013-04-09 23:57:00,41.5,33.6,29.78,South,190,0.9,2.9,73,0.00,,,0.09,meteobridge,2013-04-10 05:57:00,